createdAt,value
2018-10-18T00:00:06.213Z,100228.77
2018-10-18T00:02:35.016Z,100230.19
2018-10-18T00:05:03.566Z,100228.37
2018-10-18T00:07:32.214Z,100230.64
2018-10-18T00:10:00.952Z,100226.86
2018-10-18T00:12:29.645Z,100222.49
2018-10-18T00:14:58.466Z,100224.35
2018-10-18T00:17:32.317Z,100228.53
2018-10-18T00:20:00.946Z,100224.33
2018-10-18T00:22:29.659Z,100222.65
2018-10-18T00:24:58.336Z,100223.32
2018-10-18T00:27:26.895Z,100228.17
2018-10-18T00:29:55.630Z,100223.23
2018-10-18T00:32:25.256Z,100222.41
2018-10-18T00:34:53.789Z,100225.47
2018-10-18T00:37:22.492Z,100224.52
2018-10-18T00:39:51.506Z,100219.92
2018-10-18T00:42:21.254Z,100219.84
2018-10-18T00:44:49.910Z,100219.06
2018-10-18T00:47:18.492Z,100218.39
2018-10-18T00:49:47.195Z,100217.48
2018-10-18T00:52:17.130Z,100206.91
2018-10-18T00:54:45.762Z,100211.53
2018-10-18T00:57:14.512Z,100208.98
2018-10-18T00:59:43.073Z,100213.54
2018-10-18T01:02:11.714Z,100214.81
2018-10-18T01:04:40.334Z,100213.83
2018-10-18T01:07:08.973Z,100211.13
2018-10-18T01:09:37.514Z,100210.63
2018-10-18T01:12:06.262Z,100210.55
2018-10-18T01:14:34.911Z,100206.47
2018-10-18T01:17:04.338Z,100203.45
2018-10-18T01:19:35.376Z,100201.14
2018-10-18T01:22:05.381Z,100196.33
2018-10-18T01:24:34.502Z,100201.33
2018-10-18T01:27:04.430Z,100204.09
2018-10-18T01:29:33.057Z,100208.65
2018-10-18T01:32:01.785Z,100200.84
2018-10-18T01:34:31.381Z,100197.88
2018-10-18T01:36:59.983Z,100197.88
2018-10-18T01:39:30.480Z,100186.94
2018-10-18T01:42:00.054Z,100184.67
2018-10-18T01:44:28.668Z,100186.52
2018-10-18T01:46:57.200Z,100182.70
2018-10-18T01:49:25.794Z,100184.13
2018-10-18T01:51:55.090Z,100186.52
2018-10-18T01:54:23.669Z,100182.48
2018-10-18T01:56:52.110Z,100185.03
2018-10-18T01:59:20.698Z,100186.09
2018-10-18T02:01:50.273Z,100179.19
2018-10-18T02:04:19.773Z,100181.91
2018-10-18T02:06:48.523Z,100182.80
2018-10-18T02:09:17.257Z,100184.53
2018-10-18T02:11:45.874Z,100180.51
2018-10-18T02:14:14.469Z,100184.41
2018-10-18T02:16:43.011Z,100179.61
2018-10-18T02:19:12.200Z,100175.25
2018-10-18T02:21:42.822Z,100179.23
2018-10-18T02:24:11.538Z,100184.95
2018-10-18T02:26:40.185Z,100180.70
2018-10-18T02:29:08.698Z,100181.91
2018-10-18T02:31:37.347Z,100182.98
2018-10-18T02:34:05.897Z,100186.92
2018-10-18T02:36:34.582Z,100190.38
2018-10-18T02:39:04.461Z,100193.66
2018-10-18T02:41:32.955Z,100193.89
2018-10-18T02:44:01.458Z,100191.16
2018-10-18T02:46:30.146Z,100197.47
2018-10-18T02:48:58.899Z,100192.70
2018-10-18T02:51:27.476Z,100195.55
2018-10-18T02:53:56.039Z,100194.84
2018-10-18T02:56:24.805Z,100187.35
2018-10-18T02:58:53.382Z,100187.02
2018-10-18T03:01:21.913Z,100189.81
2018-10-18T03:03:50.616Z,100187.19
2018-10-18T03:06:19.299Z,100185.33
2018-10-18T03:08:48.886Z,100183.67
2018-10-18T03:11:17.426Z,100177.23
2018-10-18T03:13:45.955Z,100176.52
2018-10-18T03:16:14.791Z,100181.22
2018-10-18T03:18:43.287Z,100182.59
2018-10-18T03:21:12.885Z,100191.41
2018-10-18T03:23:41.722Z,100186.26
2018-10-18T03:26:11.327Z,100181.70
2018-10-18T03:28:40.018Z,100180.38
2018-10-18T03:31:08.488Z,100175.38
2018-10-18T03:33:37.050Z,100179.45
2018-10-18T03:36:06.147Z,100172.47
2018-10-18T03:38:34.754Z,100172.84
2018-10-18T03:41:03.523Z,100170.25
2018-10-18T03:43:32.294Z,100175.13
2018-10-18T03:46:00.937Z,100168.94
2018-10-18T03:48:30.255Z,100173.02
2018-10-18T03:50:59.814Z,100172.95
2018-10-18T03:53:28.786Z,100172.84
2018-10-18T03:55:57.390Z,100179.61
2018-10-18T03:58:26.268Z,100176.17
2018-10-18T04:00:54.860Z,100170.69
2018-10-18T04:03:23.550Z,100175.03
2018-10-18T04:05:52.227Z,100176.20
2018-10-18T04:08:20.839Z,100168.28
2018-10-18T04:10:49.493Z,100166.26
2018-10-18T04:13:18.034Z,100167.80
2018-10-18T04:15:46.777Z,100171.74
2018-10-18T04:18:15.456Z,100170.50
2018-10-18T04:20:44.141Z,100172.14
2018-10-18T04:23:12.809Z,100170.26
2018-10-18T04:25:41.493Z,100165.73
2018-10-18T04:28:10.226Z,100168.09
2018-10-18T04:30:39.010Z,100165.42
2018-10-18T04:33:07.539Z,100169.27
2018-10-18T04:35:36.107Z,100162.13
2018-10-18T04:38:04.728Z,100169.79
2018-10-18T04:40:33.250Z,100169.23
2018-10-18T04:43:01.945Z,100169.64
2018-10-18T04:45:31.447Z,100169.04
2018-10-18T04:48:00.146Z,100175.34
2018-10-18T04:50:28.549Z,100174.14
2018-10-18T04:52:57.407Z,100177.27
2018-10-18T04:55:26.030Z,100187.67
2018-10-18T04:57:54.625Z,100185.70
2018-10-18T05:00:23.198Z,100186.69
2018-10-18T05:02:52.049Z,100180.79
2018-10-18T05:05:31.838Z,100180.30
2018-10-18T05:08:00.416Z,100181.92
2018-10-18T05:10:28.939Z,100177.03
2018-10-18T05:12:57.610Z,100176.02
2018-10-18T05:15:26.318Z,100176.02
2018-10-18T05:17:55.030Z,100173.20
2018-10-18T05:20:23.706Z,100172.07
2018-10-18T05:22:52.242Z,100176.35
2018-10-18T05:25:20.774Z,100182.48
2018-10-18T05:27:49.288Z,100173.13
2018-10-18T05:30:17.852Z,100181.02
2018-10-18T05:32:46.905Z,100172.45
2018-10-18T05:35:15.392Z,100172.49
2018-10-18T05:37:44.114Z,100182.78
2018-10-18T05:40:13.665Z,100181.30
2018-10-18T05:42:42.163Z,100183.80
2018-10-18T05:45:10.722Z,100190.09
2018-10-18T05:47:39.613Z,100191.23
2018-10-18T05:50:08.847Z,100199.95
2018-10-18T05:52:37.506Z,100198.28
2018-10-18T05:55:07.384Z,100204.38
2018-10-18T05:57:35.930Z,100209.14
2018-10-18T06:00:07.040Z,100205.20
2018-10-18T06:02:35.634Z,100210.70
2018-10-18T06:05:04.498Z,100207.55
2018-10-18T06:07:32.983Z,100216.72
2018-10-18T06:10:01.767Z,100214.47
2018-10-18T06:12:30.170Z,100212.70
2018-10-18T06:14:58.841Z,100204.82
2018-10-18T06:17:27.370Z,100213.02
2018-10-18T06:19:55.945Z,100208.14
2018-10-18T06:22:24.530Z,100211.83
2018-10-18T06:24:55.085Z,100215.48
2018-10-18T06:27:23.679Z,100216.31
2018-10-18T06:29:52.228Z,100215.04
2018-10-18T06:32:20.889Z,100209.96
2018-10-18T06:34:49.567Z,100211.38
2018-10-18T06:37:18.190Z,100216.26
2018-10-18T06:39:46.775Z,100218.81
2018-10-18T06:42:15.397Z,100214.46
2018-10-18T06:44:43.955Z,100220.27
2018-10-18T06:47:12.713Z,100220.31
2018-10-18T06:49:42.432Z,100221.17
2018-10-18T06:52:11.063Z,100226.19
2018-10-18T06:54:40.555Z,100228.98
2018-10-18T06:57:09.297Z,100232.48
2018-10-18T06:59:38.611Z,100234.17
2018-10-18T07:02:08.172Z,100233.03
2018-10-18T07:04:36.912Z,100240.67
2018-10-18T07:07:05.852Z,100237.66
2018-10-18T07:09:34.467Z,100244.95
2018-10-18T07:12:03.159Z,100247.84
2018-10-18T07:14:32.742Z,100246.30
2018-10-18T07:17:01.554Z,100248.03
2018-10-18T07:19:30.105Z,100251.22
2018-10-18T07:21:58.616Z,100258.47
2018-10-18T07:24:27.490Z,100259.34
2018-10-18T07:26:56.290Z,100263.29
2018-10-18T07:29:25.870Z,100260.98
2018-10-18T07:31:54.669Z,100259.89
2018-10-18T07:34:23.242Z,100261.75
2018-10-18T07:36:52.146Z,100247.85
2018-10-18T07:39:20.793Z,100246.20
2018-10-18T07:41:49.463Z,100251.98
2018-10-18T07:44:18.046Z,100243.52
2018-10-18T07:46:46.833Z,100242.61
2018-10-18T07:49:15.435Z,100254.30
2018-10-18T07:51:44.105Z,100255.05
2018-10-18T07:54:12.921Z,100257.48
2018-10-18T07:56:41.722Z,100253.45
2018-10-18T07:59:10.388Z,100255.05
2018-10-18T08:01:38.865Z,100263.87
2018-10-18T08:04:07.401Z,100258.64
2018-10-18T08:06:35.990Z,100258.63
2018-10-18T08:09:06.833Z,100263.29
2018-10-18T08:11:35.435Z,100260.30
2018-10-18T08:14:04.174Z,100260.81
2018-10-18T08:16:32.646Z,100253.02
2018-10-18T08:19:01.731Z,100247.60
2018-10-18T08:21:30.353Z,100250.89
2018-10-18T08:23:59.111Z,100239.99
2018-10-18T08:26:28.788Z,100244.54
2018-10-18T08:28:57.341Z,100240.50
2018-10-18T08:31:26.266Z,100234.73
2018-10-18T08:33:54.827Z,100233.84
2018-10-18T08:36:23.803Z,100228.27
2018-10-18T08:38:52.499Z,100226.00
2018-10-18T08:41:21.125Z,100220.69
2018-10-18T08:43:49.894Z,100218.78
2018-10-18T08:46:18.771Z,100217.41
2018-10-18T08:48:49.377Z,100217.03
2018-10-18T09:31:30.261Z,100204.29
2018-10-18T09:34:00.279Z,100197.09
2018-10-18T09:36:29.158Z,100191.44
2018-10-18T09:38:57.890Z,100186.44
2018-10-18T09:41:26.526Z,100180.52
2018-10-18T09:44:02.530Z,100179.47
2018-10-18T09:46:31.979Z,100185.70
2018-10-18T09:49:00.904Z,100185.83
2018-10-18T09:51:29.744Z,100187.58
2018-10-18T09:53:58.942Z,100185.95
2018-10-18T09:56:27.584Z,100180.35
2018-10-18T09:58:56.213Z,100174.61
2018-10-18T10:01:31.894Z,100171.64
2018-10-18T10:04:02.455Z,100168.23
2018-10-18T10:06:31.349Z,100169.19
2018-10-18T10:09:00.110Z,100158.37
2018-10-18T10:11:29.168Z,100156.06
2018-10-18T10:13:57.806Z,100149.19
2018-10-18T10:16:26.542Z,100148.63
2018-10-18T10:18:55.430Z,100149.94
2018-10-18T10:21:24.168Z,100156.98
2018-10-18T10:23:52.702Z,100159.05
2018-10-18T10:26:21.393Z,100159.52
2018-10-18T10:28:50.153Z,100156.53
2018-10-18T10:31:19.003Z,100156.33
2018-10-18T10:33:48.041Z,100153.08
2018-10-18T10:36:16.605Z,100148.41
2018-10-18T10:38:45.139Z,100147.53
2018-10-18T10:41:14.071Z,100149.27
2018-10-18T10:43:42.657Z,100139.55
2018-10-18T10:46:11.461Z,100131.28
2018-10-18T10:48:39.932Z,100131.38
2018-10-18T10:51:09.571Z,100129.52
2018-10-18T10:53:38.371Z,100125.05
2018-10-18T10:56:07.080Z,100119.50
2018-10-18T10:58:35.849Z,100122.92
2018-10-18T11:01:09.071Z,100121.27
2018-10-18T11:03:38.644Z,100120.00
2018-10-18T11:06:07.404Z,100118.20
2018-10-18T11:08:36.123Z,100119.50
2018-10-18T11:11:05.071Z,100113.33
2018-10-18T11:13:33.790Z,100112.31
2018-10-18T11:16:03.400Z,100109.33
2018-10-18T11:18:33.314Z,100102.59
2018-10-18T11:21:03.543Z,100104.29
2018-10-18T11:23:33.771Z,100103.05
2018-10-18T11:26:03.759Z,100095.89
2018-10-18T11:28:32.365Z,100097.31
2018-10-18T11:31:01.008Z,100096.48
2018-10-18T11:33:29.638Z,100101.53
2018-10-18T11:35:58.408Z,100099.05
2018-10-18T11:38:30.917Z,100094.19
2018-10-18T11:40:59.522Z,100090.12
2018-10-18T11:43:28.252Z,100083.97
2018-10-18T11:45:56.864Z,100086.16
2018-10-18T11:48:25.552Z,100083.81
2018-10-18T11:50:54.133Z,100079.86
2018-10-18T11:53:22.777Z,100079.59
2018-10-18T11:55:51.550Z,100078.28
2018-10-18T11:58:20.125Z,100078.55
2018-10-18T12:00:49.082Z,100074.22
2018-10-18T12:03:17.770Z,100074.97
2018-10-18T12:05:46.357Z,100071.16
2018-10-18T12:08:15.050Z,100066.05
2018-10-18T12:10:43.583Z,100067.09
2018-10-18T12:13:12.339Z,100069.34
2018-10-18T12:15:41.073Z,100067.66
2018-10-18T12:18:10.295Z,100064.56
2018-10-18T12:20:38.897Z,100056.42
2018-10-18T12:23:07.480Z,100062.36
2018-10-18T12:25:36.186Z,100058.45
2018-10-18T12:28:04.859Z,100063.20
2018-10-18T12:30:33.453Z,100055.25
2018-10-18T12:33:02.102Z,100053.56
2018-10-18T12:35:30.873Z,100051.54
2018-10-18T12:37:59.939Z,100057.80
2018-10-18T12:40:29.361Z,100056.78
2018-10-18T12:42:59.022Z,100049.97
2018-10-18T12:45:27.870Z,100051.64
2018-10-18T12:47:56.677Z,100051.14
2018-10-18T12:50:25.455Z,100057.72
2018-10-18T12:52:55.053Z,100050.84
2018-10-18T12:55:23.564Z,100052.06
2018-10-18T12:57:52.217Z,100054.39
2018-10-18T13:00:21.570Z,100050.41
2018-10-18T13:02:50.238Z,100060.13
2018-10-18T13:05:19.016Z,100055.63
2018-10-18T13:07:47.813Z,100054.91
2018-10-18T13:10:16.397Z,100055.72
2018-10-18T13:12:47.379Z,100061.42
2018-10-18T13:15:16.834Z,100066.33
2018-10-18T13:17:46.583Z,100059.22
2018-10-18T13:20:15.629Z,100061.74
2018-10-18T13:22:44.292Z,100052.67
2018-10-18T13:25:13.094Z,100060.03
2018-10-18T13:27:42.025Z,100064.37
2018-10-18T13:30:11.645Z,100056.86
2018-10-18T13:32:40.868Z,100062.55
2018-10-18T13:35:10.002Z,100063.78
2018-10-18T13:37:38.785Z,100068.38
2018-10-18T13:40:08.019Z,100060.47
2018-10-18T13:42:36.762Z,100074.14
2018-10-18T13:45:06.205Z,100060.19
2018-10-18T13:47:35.203Z,100057.10
2018-10-18T13:50:05.275Z,100062.77
2018-10-18T13:52:33.929Z,100057.95
2018-10-18T13:55:03.545Z,100068.06
2018-10-18T13:57:32.332Z,100068.78
2018-10-18T14:00:25.585Z,100067.34
2018-10-18T14:02:55.130Z,100070.83
2018-10-18T14:05:25.011Z,100071.08
2018-10-18T14:07:54.561Z,100071.74
2018-10-18T14:10:23.294Z,100070.84
2018-10-18T14:12:52.542Z,100070.77
2018-10-18T14:15:21.272Z,100059.86
2018-10-18T14:17:50.022Z,100068.30
2018-10-18T14:20:18.906Z,100064.09
2018-10-18T14:22:47.551Z,100077.09
2018-10-18T14:25:16.269Z,100074.34
2018-10-18T14:27:45.008Z,100078.08
2018-10-18T14:30:14.059Z,100073.03
2018-10-18T14:32:43.601Z,100065.99
2018-10-18T14:35:13.216Z,100065.92
2018-10-18T14:37:41.856Z,100079.08
2018-10-18T14:40:11.854Z,100075.59
2018-10-18T14:42:40.476Z,100080.73
2018-10-18T14:45:09.843Z,100082.22
2018-10-18T14:47:38.443Z,100075.39
2018-10-18T14:50:09.764Z,100079.73
2018-10-18T14:52:38.556Z,100085.40
2018-10-18T14:55:07.207Z,100090.63
2018-10-18T14:57:35.921Z,100091.48
2018-10-18T15:00:04.838Z,100088.84
2018-10-18T15:02:33.494Z,100095.69
2018-10-18T15:05:02.268Z,100098.72
2018-10-18T15:07:31.710Z,100092.25
2018-10-18T15:10:00.247Z,100097.33
2018-10-18T15:12:28.934Z,100102.61
2018-10-18T15:14:57.538Z,100096.69
2018-10-18T15:17:27.216Z,100104.27
2018-10-18T15:19:56.821Z,100105.31
2018-10-18T15:22:25.809Z,100104.76
2018-10-18T15:24:55.962Z,100104.30
2018-10-18T15:27:24.820Z,100105.78
2018-10-18T15:29:53.434Z,100114.78
2018-10-18T15:32:22.088Z,100118.81
2018-10-18T15:34:50.943Z,100122.97
2018-10-18T15:37:19.854Z,100125.23
2018-10-18T15:39:48.400Z,100130.15
2018-10-18T15:42:17.013Z,100130.14
2018-10-18T15:44:45.849Z,100130.45
2018-10-18T15:47:14.953Z,100128.28
2018-10-18T15:49:43.526Z,100132.86
2018-10-18T15:52:12.182Z,100140.47
2018-10-18T15:54:41.782Z,100141.55
2018-10-18T15:57:10.429Z,100145.16
2018-10-18T15:59:39.178Z,100147.41
2018-10-18T16:02:07.800Z,100150.93
2018-10-18T16:04:36.472Z,100155.78
2018-10-18T16:07:05.299Z,100151.64
2018-10-18T16:09:33.831Z,100159.31
2018-10-18T16:12:02.563Z,100161.47
2018-10-18T16:14:31.105Z,100160.47
2018-10-18T16:16:59.974Z,100170.35
2018-10-18T16:19:28.656Z,100164.19
2018-10-18T16:21:57.292Z,100167.24
2018-10-18T16:24:26.114Z,100164.39
2018-10-18T16:26:54.577Z,100164.42
2018-10-18T16:29:23.262Z,100166.13
2018-10-18T16:31:51.878Z,100163.48
2018-10-18T16:34:20.721Z,100167.01
2018-10-18T16:36:50.388Z,100171.38
2018-10-18T16:39:19.177Z,100174.63
2018-10-18T16:41:47.916Z,100178.16
2018-10-18T16:44:16.717Z,100177.47
2018-10-18T16:46:45.186Z,100181.36
2018-10-18T16:49:14.545Z,100180.53
2018-10-18T16:51:43.118Z,100184.70
2018-10-18T16:54:12.020Z,100187.16
2018-10-18T16:56:40.494Z,100192.27
2018-10-18T16:59:09.241Z,100184.66
2018-10-18T17:01:38.111Z,100192.57
2018-10-18T17:04:07.201Z,100187.19
2018-10-18T17:06:35.778Z,100195.33
2018-10-18T17:09:06.247Z,100195.42
2018-10-18T17:11:35.161Z,100195.06
2018-10-18T17:14:03.901Z,100197.33
2018-10-18T17:16:32.862Z,100198.31
2018-10-18T17:19:01.624Z,100196.78
2018-10-18T17:21:30.195Z,100201.70
2018-10-18T17:23:59.015Z,100203.22
2018-10-18T17:26:27.748Z,100203.13
2018-10-18T17:28:56.475Z,100205.55
2018-10-18T17:31:25.006Z,100215.18
2018-10-18T17:33:54.811Z,100215.88
2018-10-18T17:36:23.721Z,100216.02
2018-10-18T17:38:52.483Z,100216.72
2018-10-18T17:41:21.157Z,100219.84
2018-10-18T17:43:49.747Z,100215.23
2018-10-18T17:46:18.456Z,100222.96
2018-10-18T17:48:46.997Z,100223.69
2018-10-18T17:51:15.707Z,100221.08
2018-10-18T17:53:45.556Z,100219.47
2018-10-18T17:56:14.488Z,100222.09
2018-10-18T17:58:43.058Z,100225.86
2018-10-18T18:01:11.966Z,100227.59
2018-10-18T18:03:40.643Z,100220.59
2018-10-18T18:06:09.570Z,100222.12
2018-10-18T18:08:38.390Z,100215.42
2018-10-18T18:11:06.955Z,100219.42
2018-10-18T18:13:35.690Z,100217.89
2018-10-18T18:16:04.561Z,100211.31
2018-10-18T18:18:33.533Z,100223.70
2018-10-18T18:21:02.361Z,100214.67
2018-10-18T18:23:31.005Z,100224.34
2018-10-18T18:26:00.815Z,100226.73
2018-10-18T18:28:29.406Z,100220.77
2018-10-18T18:30:58.204Z,100225.40
2018-10-18T18:33:26.947Z,100233.64
2018-10-18T18:35:55.590Z,100234.97
2018-10-18T18:38:24.331Z,100233.31
2018-10-18T18:40:52.996Z,100235.52
2018-10-18T18:43:21.732Z,100239.02
2018-10-18T18:45:50.500Z,100241.04
2018-10-18T18:48:19.050Z,100242.22
2018-10-18T18:50:48.576Z,100235.88
2018-10-18T18:53:17.444Z,100242.06
2018-10-18T18:55:46.179Z,100241.14
2018-10-18T18:58:14.876Z,100244.08
2018-10-18T19:00:45.525Z,100244.81
2018-10-18T19:03:15.425Z,100251.14
2018-10-18T19:05:44.485Z,100247.69
2018-10-18T19:08:14.912Z,100250.28
2018-10-18T19:10:43.468Z,100254.25
2018-10-18T19:13:12.290Z,100253.84
2018-10-18T19:15:41.159Z,100258.44
2018-10-18T19:18:09.779Z,100261.78
2018-10-18T19:20:38.350Z,100256.38
2018-10-18T19:23:06.935Z,100254.11
2018-10-18T19:25:35.680Z,100259.40
2018-10-18T19:28:05.273Z,100253.73
2018-10-18T19:30:33.886Z,100259.74
2018-10-18T19:33:02.571Z,100259.80
2018-10-18T19:35:31.201Z,100255.27
2018-10-18T19:38:00.053Z,100250.34
2018-10-18T19:40:29.210Z,100262.92
2018-10-18T19:42:58.055Z,100268.92
2018-10-18T19:45:27.002Z,100272.76
2018-10-18T19:47:55.841Z,100277.94
2018-10-18T19:50:24.626Z,100274.89
2018-10-18T19:52:53.184Z,100280.80
2018-10-18T19:55:21.733Z,100281.09
2018-10-18T19:57:50.822Z,100275.73
2018-10-18T20:00:19.711Z,100280.34
2018-10-18T20:02:48.463Z,100276.73
2018-10-18T20:05:17.060Z,100283.33
2018-10-18T20:07:45.640Z,100284.20
2018-10-18T20:10:14.442Z,100282.06
2018-10-18T20:12:43.154Z,100283.86
2018-10-18T20:15:14.023Z,100286.50
2018-10-18T20:17:42.799Z,100292.52
2018-10-18T20:20:11.549Z,100292.03
2018-10-18T20:22:40.323Z,100291.37
2018-10-18T20:25:09.779Z,100291.83
2018-10-18T20:27:38.673Z,100289.70
2018-10-18T20:30:11.131Z,100288.53
2018-10-18T20:32:41.064Z,100291.37
2018-10-18T20:35:10.430Z,100296.59
2018-10-18T20:37:39.767Z,100289.13
2018-10-18T20:40:10.683Z,100296.53
2018-10-18T20:42:39.794Z,100295.22
2018-10-18T20:45:09.318Z,100298.97
2018-10-18T20:47:38.924Z,100302.06
2018-10-18T20:50:07.566Z,100303.33
2018-10-18T20:52:36.329Z,100305.30
2018-10-18T20:55:06.191Z,100303.77
2018-10-18T20:57:35.126Z,100305.63
2018-10-18T21:00:03.890Z,100308.33
2018-10-18T21:02:32.463Z,100305.28
2018-10-18T21:05:01.155Z,100311.56
2018-10-18T21:07:30.113Z,100309.98
2018-10-18T21:09:59.190Z,100310.10
2018-10-18T21:12:27.746Z,100309.33
2018-10-18T21:14:56.343Z,100311.14
2018-10-18T21:17:24.942Z,100308.60
2018-10-18T21:19:53.771Z,100304.28
2018-10-18T21:22:22.647Z,100310.13
2018-10-18T21:24:51.427Z,100316.19
2018-10-18T21:27:20.083Z,100313.51
2018-10-18T21:29:48.681Z,100313.47
2018-10-18T21:32:17.422Z,100320.05
2018-10-18T21:34:46.380Z,100320.22
2018-10-18T21:37:15.468Z,100328.27
2018-10-18T21:39:44.237Z,100327.45
2018-10-18T21:42:13.283Z,100326.45
2018-10-18T21:44:42.103Z,100327.48
2018-10-18T21:47:12.289Z,100330.34
2018-10-18T21:49:40.748Z,100334.00
2018-10-18T21:52:09.332Z,100335.94
2018-10-18T21:54:39.027Z,100331.81
2018-10-18T21:57:07.973Z,100331.31
2018-10-18T21:59:36.626Z,100329.78
2018-10-18T22:02:05.618Z,100323.42
2018-10-18T22:04:34.686Z,100324.89
2018-10-18T22:07:03.433Z,100325.16
2018-10-18T22:09:32.110Z,100328.56
2018-10-18T22:12:00.843Z,100333.08
2018-10-18T22:14:29.381Z,100332.58
2018-10-18T22:16:58.208Z,100328.62
2018-10-18T22:19:27.411Z,100331.38
2018-10-18T22:21:56.021Z,100336.58
2018-10-18T22:24:24.594Z,100329.61
2018-10-18T22:26:53.171Z,100335.76
2018-10-18T22:29:21.740Z,100328.20
2018-10-18T22:31:50.298Z,100334.94
2018-10-18T22:34:18.935Z,100338.78
2018-10-18T22:36:47.482Z,100336.42
2018-10-18T22:39:16.746Z,100338.75
2018-10-18T22:41:45.296Z,100342.20
2018-10-18T22:44:14.147Z,100343.13
2018-10-18T22:46:42.785Z,100342.56
2018-10-18T22:49:11.634Z,100344.65
2018-10-18T22:51:41.221Z,100349.09
2018-10-18T22:54:09.725Z,100350.44
2018-10-18T22:56:38.797Z,100351.63
2018-10-18T22:59:07.393Z,100359.13
2018-10-18T23:01:35.941Z,100362.47
2018-10-18T23:04:04.604Z,100361.61
2018-10-18T23:06:33.159Z,100358.39
2018-10-18T23:09:01.880Z,100356.08
2018-10-18T23:11:30.496Z,100355.17
2018-10-18T23:13:59.185Z,100358.22
2018-10-18T23:16:27.847Z,100359.75
2018-10-18T23:18:56.467Z,100355.98
2018-10-18T23:21:25.258Z,100358.28
2018-10-18T23:23:54.034Z,100358.06
2018-10-18T23:26:24.058Z,100361.45
2018-10-18T23:28:52.646Z,100356.68
2018-10-18T23:31:21.189Z,100356.12
2018-10-18T23:33:49.828Z,100362.10
2018-10-18T23:36:19.034Z,100358.25
2018-10-18T23:38:47.583Z,100367.20
2018-10-18T23:41:16.231Z,100366.44
2018-10-18T23:43:45.651Z,100366.15
2018-10-18T23:46:14.401Z,100364.11
2018-10-18T23:48:42.913Z,100362.63
2018-10-18T23:51:11.642Z,100365.59
2018-10-18T23:53:40.370Z,100360.25
2018-10-18T23:56:09.739Z,100366.45
2018-10-18T23:58:39.285Z,100371.53
